createdAt,value
2023-04-11T00:00:48.106Z,0.081
2023-04-11T00:02:48.498Z,0.082
2023-04-11T00:04:48.171Z,0.082
2023-04-11T00:06:48.105Z,0.084
2023-04-11T00:08:48.136Z,0.083
2023-04-11T00:10:48.056Z,0.083
2023-04-11T00:12:49.173Z,0.081
2023-04-11T00:14:48.096Z,0.083
2023-04-11T00:16:48.463Z,0.081
2023-04-11T00:18:48.147Z,0.079
2023-04-11T00:20:48.187Z,0.080
2023-04-11T00:22:48.124Z,0.081
2023-04-11T00:24:48.089Z,0.080
2023-04-11T00:26:48.065Z,0.081
2023-04-11T00:28:48.127Z,0.082
2023-04-11T00:30:48.174Z,0.081
2023-04-11T00:32:48.168Z,0.079
2023-04-11T00:34:48.188Z,0.079
2023-04-11T00:36:48.863Z,0.077
2023-04-11T00:38:48.162Z,0.076
2023-04-11T00:40:48.123Z,0.076
2023-04-11T00:42:48.115Z,0.073
2023-04-11T00:44:48.142Z,0.071
2023-04-11T00:46:48.161Z,0.069
2023-04-11T00:48:48.079Z,0.066
2023-04-11T00:50:48.089Z,0.066
2023-04-11T00:52:48.081Z,0.064
2023-04-11T00:54:48.102Z,0.065
2023-04-11T00:56:48.141Z,0.066
2023-04-11T00:58:49.181Z,0.066
2023-04-11T01:00:48.508Z,0.065
2023-04-11T01:02:48.198Z,0.064
2023-04-11T01:04:48.098Z,0.066
2023-04-11T01:06:48.107Z,0.064
2023-04-11T01:08:48.151Z,0.064
2023-04-11T01:10:48.115Z,0.064
2023-04-11T01:12:48.079Z,0.065
2023-04-11T01:14:48.171Z,0.067
2023-04-11T01:16:48.264Z,0.068
2023-04-11T01:18:48.105Z,0.069
2023-04-11T01:20:48.105Z,0.069
2023-04-11T01:22:48.100Z,0.070
2023-04-11T01:24:48.109Z,0.070
2023-04-11T01:26:48.153Z,0.071
2023-04-11T01:28:48.242Z,0.069
2023-04-11T01:30:48.280Z,0.070
2023-04-11T01:32:48.187Z,0.070
2023-04-11T01:34:48.191Z,0.069
2023-04-11T01:36:48.172Z,0.070
2023-04-11T01:38:48.289Z,0.070
2023-04-11T01:40:48.154Z,0.069
2023-04-11T01:42:48.136Z,0.069
2023-04-11T01:44:48.177Z,0.070
2023-04-11T01:46:51.699Z,0.072
2023-04-11T01:48:48.303Z,0.073
2023-04-11T01:50:48.184Z,0.074
2023-04-11T01:52:48.195Z,0.072
2023-04-11T01:55:48.162Z,0.071
2023-04-11T01:57:48.177Z,0.071
2023-04-11T01:58:51.689Z,0.071
2023-04-11T02:01:48.245Z,0.071
2023-04-11T02:03:48.315Z,0.068
2023-04-11T02:05:48.148Z,0.068
2023-04-11T02:07:48.169Z,0.066
2023-04-11T02:09:48.205Z,0.067
2023-04-11T02:11:48.162Z,0.068
2023-04-11T02:13:48.192Z,0.066
2023-04-11T02:15:48.235Z,0.065
2023-04-11T02:17:48.319Z,0.066
2023-04-11T02:19:48.139Z,0.064
2023-04-11T02:21:48.313Z,0.062
2023-04-11T02:23:48.196Z,0.063
2023-04-11T02:25:48.298Z,0.063
2023-04-11T02:27:48.140Z,0.064
2023-04-11T02:29:48.227Z,0.066
2023-04-11T02:31:48.296Z,0.066
2023-04-11T02:33:48.181Z,0.065
2023-04-11T02:35:48.227Z,0.067
2023-04-11T02:37:48.800Z,0.065
2023-04-11T02:39:48.724Z,0.065
2023-04-11T02:41:48.182Z,0.066
2023-04-11T02:43:48.180Z,0.068
2023-04-11T02:45:48.395Z,0.068
2023-04-11T02:47:48.191Z,0.067
2023-04-11T02:49:52.077Z,0.067
2023-04-11T02:51:48.201Z,0.066
2023-04-11T02:53:48.193Z,0.068
2023-04-11T02:55:48.856Z,0.069
2023-04-11T02:57:48.161Z,0.070
2023-04-11T02:59:48.184Z,0.068
2023-04-11T03:01:48.361Z,0.071
2023-04-11T03:03:48.312Z,0.073
2023-04-11T03:05:48.402Z,0.072
2023-04-11T03:07:48.279Z,0.074
2023-04-11T03:09:48.185Z,0.074
2023-04-11T03:11:48.216Z,0.076
2023-04-11T03:13:48.255Z,0.079
2023-04-11T03:15:48.272Z,0.078
2023-04-11T03:17:48.363Z,0.077
2023-04-11T03:19:48.514Z,0.078
2023-04-11T03:21:48.275Z,0.077
2023-04-11T03:23:48.360Z,0.076
2023-04-11T03:25:48.548Z,0.076
2023-04-11T03:27:48.270Z,0.075
2023-04-11T03:29:48.588Z,0.075
2023-04-11T03:31:48.332Z,0.074
2023-04-11T03:33:48.289Z,0.076
2023-04-11T03:35:48.301Z,0.077
2023-04-11T03:37:48.256Z,0.078
2023-04-11T03:39:48.204Z,0.079
2023-04-11T03:41:48.674Z,0.079
2023-04-11T03:43:48.252Z,0.077
2023-04-11T03:45:52.125Z,0.078
2023-04-11T03:47:48.242Z,0.078
2023-04-11T03:49:48.266Z,0.077
2023-04-11T03:51:48.852Z,0.077
2023-04-11T03:53:48.413Z,0.076
2023-04-11T03:55:48.360Z,0.078
2023-04-11T03:57:48.361Z,0.078
2023-04-11T03:59:48.491Z,0.079
2023-04-11T04:01:48.429Z,0.078
2023-04-11T04:03:48.547Z,0.081
2023-04-11T04:08:15.628Z,0.079
2023-04-11T04:10:15.575Z,0.080
2023-04-11T04:12:15.605Z,0.077
2023-04-11T04:14:15.577Z,0.077
2023-04-11T04:16:15.584Z,0.079
2023-04-11T04:18:15.807Z,0.077
2023-04-11T04:20:15.603Z,0.077
2023-04-11T04:22:16.911Z,0.081
2023-04-11T04:24:15.524Z,0.085
2023-04-11T04:26:15.594Z,0.084
2023-04-11T04:28:15.735Z,0.083
2023-04-11T04:30:15.566Z,0.084
2023-04-11T04:32:15.547Z,0.085
2023-04-11T04:34:19.452Z,0.083
2023-04-11T04:36:15.505Z,0.082
2023-04-11T04:38:15.584Z,0.082
2023-04-11T04:40:19.778Z,0.081
2023-04-11T04:42:15.563Z,0.082
2023-04-11T04:44:20.610Z,0.081
2023-04-11T04:46:15.669Z,0.082
2023-04-11T04:48:15.681Z,0.085
2023-04-11T04:50:15.627Z,0.084
2023-04-11T04:52:15.817Z,0.089
2023-04-11T04:54:15.606Z,0.089
2023-04-11T04:56:15.530Z,0.089
2023-04-11T04:58:17.286Z,0.089
2023-04-11T05:00:15.634Z,0.088
2023-04-11T05:02:15.867Z,0.089
2023-04-11T05:04:16.082Z,0.089
2023-04-11T05:06:15.543Z,0.089
2023-04-11T05:08:15.577Z,0.089
2023-04-11T05:10:15.665Z,0.088
2023-04-11T05:12:15.663Z,0.089
2023-04-11T05:14:18.521Z,0.088
2023-04-11T05:16:16.103Z,0.089
2023-04-11T05:18:15.574Z,0.089
2023-04-11T05:20:18.657Z,0.090
2023-04-11T05:22:15.688Z,3.339
2023-04-11T05:24:20.578Z,3.341
2023-04-11T05:26:16.394Z,3.343
2023-04-11T05:28:20.445Z,3.344
2023-04-11T05:30:15.573Z,3.343
2023-04-11T05:32:15.690Z,3.343
2023-04-11T05:34:18.578Z,3.346
2023-04-11T05:36:15.715Z,3.344
2023-04-11T05:38:15.659Z,3.344
2023-04-11T05:40:15.799Z,3.344
2023-04-11T05:42:15.704Z,0.065
2023-04-11T05:44:16.097Z,0.067
2023-04-11T05:46:15.826Z,0.083
2023-04-11T05:48:16.142Z,0.074
2023-04-11T05:50:18.277Z,0.087
2023-04-11T05:52:15.725Z,0.082
2023-04-11T05:54:15.605Z,0.082
2023-04-11T05:56:15.625Z,0.079
2023-04-11T05:58:15.645Z,0.080
2023-04-11T06:00:15.657Z,0.082
2023-04-11T06:02:15.959Z,0.082
2023-04-11T06:04:15.723Z,0.084
2023-04-11T06:06:16.154Z,0.084
2023-04-11T06:08:15.568Z,0.088
2023-04-11T06:10:22.582Z,0.092
2023-04-11T06:12:15.638Z,0.093
2023-04-11T06:14:15.677Z,0.093
2023-04-11T06:16:15.783Z,0.094
2023-04-11T06:18:15.679Z,0.095
2023-04-11T06:20:15.828Z,0.099
2023-04-11T06:22:15.611Z,0.102
2023-04-11T06:24:15.641Z,0.102
2023-04-11T06:26:15.602Z,0.103
2023-04-11T06:28:15.656Z,0.105
2023-04-11T06:30:15.674Z,0.103
2023-04-11T06:32:15.611Z,0.104
2023-04-11T06:34:15.607Z,0.106
2023-04-11T06:36:15.740Z,0.107
2023-04-11T06:38:15.697Z,0.109
2023-04-11T06:40:15.610Z,0.108
2023-04-11T06:42:15.662Z,0.114
2023-04-11T06:44:15.662Z,0.117
2023-04-11T06:46:15.663Z,0.117
2023-04-11T06:48:15.619Z,0.120
2023-04-11T06:50:15.874Z,0.119
2023-04-11T06:52:15.646Z,0.123
2023-04-11T06:54:15.689Z,0.123
2023-04-11T06:56:15.728Z,0.124
2023-04-11T06:58:15.622Z,0.125
2023-04-11T07:00:15.756Z,0.127
2023-04-11T07:02:15.813Z,0.130
2023-04-11T07:04:15.736Z,0.132
2023-04-11T07:06:15.767Z,0.134
2023-04-11T07:08:18.668Z,0.135
2023-04-11T07:10:18.250Z,0.133
2023-04-11T07:12:17.736Z,0.130
2023-04-11T07:14:20.703Z,0.131
2023-04-11T07:16:16.125Z,0.130
2023-04-11T07:18:15.652Z,0.128
2023-04-11T07:21:15.636Z,0.124
2023-04-11T07:23:16.110Z,0.121
2023-04-11T07:25:16.134Z,0.120
2023-04-11T07:27:15.704Z,0.120
2023-04-11T07:29:15.629Z,0.121
2023-04-11T07:31:15.886Z,0.121
2023-04-11T07:33:15.726Z,0.121
2023-04-11T07:35:15.901Z,0.116
2023-04-11T07:37:15.807Z,0.115
2023-04-11T07:39:15.656Z,0.116
2023-04-11T07:41:15.687Z,0.110
2023-04-11T07:43:19.331Z,0.105
2023-04-11T07:45:15.760Z,0.104
2023-04-11T07:47:15.775Z,0.101
2023-04-11T07:49:15.708Z,0.102
2023-04-11T07:51:15.650Z,0.099
2023-04-11T07:53:15.803Z,0.096
2023-04-11T07:55:18.614Z,0.096
2023-04-11T07:57:15.648Z,0.095
2023-04-11T07:59:15.654Z,0.095
2023-04-11T08:01:15.750Z,0.090
2023-04-11T08:03:15.904Z,0.086
2023-04-11T08:05:16.762Z,0.085
2023-04-11T08:07:15.752Z,0.081
2023-04-11T08:09:15.837Z,0.079
2023-04-11T08:11:20.642Z,0.079
2023-04-11T08:13:15.644Z,0.078
2023-04-11T08:15:15.650Z,0.076
2023-04-11T08:17:27.056Z,0.075
2023-04-11T08:19:15.673Z,0.075
2023-04-11T08:21:15.697Z,0.073
2023-04-11T08:23:15.710Z,0.073
2023-04-11T08:25:15.720Z,0.071
2023-04-11T08:27:18.639Z,0.068
2023-04-11T08:29:16.094Z,0.070
2023-04-11T08:31:15.845Z,0.069
2023-04-11T08:33:15.690Z,0.067
2023-04-11T08:35:15.729Z,0.067
2023-04-11T08:37:15.842Z,0.066
2023-04-11T08:39:15.663Z,0.064
2023-04-11T08:41:15.869Z,0.066
2023-04-11T08:43:15.778Z,0.065
2023-04-11T08:45:15.734Z,0.066
2023-04-11T08:47:15.796Z,0.066
2023-04-11T08:49:15.993Z,0.061
2023-04-11T08:51:15.790Z,0.062
2023-04-11T08:53:15.768Z,0.063
2023-04-11T08:55:15.667Z,0.062
2023-04-11T08:57:15.675Z,0.063
2023-04-11T08:59:15.685Z,0.061
2023-04-11T09:01:15.765Z,0.063
2023-04-11T09:03:15.822Z,0.063
2023-04-11T09:05:18.887Z,0.065
2023-04-11T09:07:15.870Z,0.066
2023-04-11T09:09:15.681Z,0.066
2023-04-11T09:11:15.736Z,0.066
2023-04-11T09:13:15.667Z,0.067
2023-04-11T09:15:15.813Z,0.070
2023-04-11T09:17:15.978Z,0.070
2023-04-11T09:19:15.842Z,0.071
2023-04-11T09:21:19.132Z,0.070
2023-04-11T09:23:15.694Z,0.072
2023-04-11T09:25:18.477Z,0.073
2023-04-11T09:27:15.764Z,0.075
2023-04-11T09:29:15.719Z,0.074
2023-04-11T09:31:15.692Z,0.073
2023-04-11T09:33:15.711Z,0.074
2023-04-11T09:35:15.791Z,0.075
2023-04-11T09:37:15.819Z,0.075
2023-04-11T09:39:15.756Z,0.079
2023-04-11T09:41:15.730Z,0.080
2023-04-11T09:43:20.341Z,0.081
2023-04-11T09:45:18.713Z,0.078
2023-04-11T09:47:15.754Z,0.080
2023-04-11T09:49:16.114Z,0.082
2023-04-11T09:51:31.915Z,0.080
2023-04-11T09:53:15.948Z,0.079
2023-04-11T09:55:19.299Z,0.081
2023-04-11T09:57:15.720Z,0.082
2023-04-11T09:59:15.777Z,0.082
2023-04-11T10:01:15.847Z,0.080
2023-04-11T10:03:15.824Z,0.077
2023-04-11T10:05:15.782Z,0.076
2023-04-11T10:07:15.852Z,0.076
2023-04-11T10:09:15.808Z,0.076
2023-04-11T10:11:15.781Z,0.076
2023-04-11T10:13:15.857Z,0.077
2023-04-11T10:15:15.854Z,0.078
2023-04-11T10:17:17.707Z,0.079
2023-04-11T10:19:15.928Z,0.079
2023-04-11T10:21:15.868Z,0.083
2023-04-11T10:23:15.926Z,0.082
2023-04-11T10:27:25.210Z,0.081
2023-04-11T10:29:25.162Z,0.078
2023-04-11T10:31:27.839Z,0.079
2023-04-11T10:33:25.241Z,0.078
2023-04-11T10:35:25.148Z,0.080
2023-04-11T10:37:25.257Z,0.081
2023-04-11T10:39:25.175Z,0.079
2023-04-11T10:41:25.187Z,0.077
2023-04-11T10:43:25.841Z,0.076
2023-04-11T10:45:25.149Z,0.078
2023-04-11T10:47:25.452Z,0.077
2023-04-11T10:49:25.245Z,0.079
2023-04-11T10:51:28.107Z,0.080
2023-04-11T10:53:25.257Z,0.080
2023-04-11T10:55:27.661Z,0.079
2023-04-11T10:57:25.314Z,0.078
2023-04-11T10:59:25.382Z,0.077
2023-04-11T11:01:36.877Z,0.078
2023-04-11T11:03:25.371Z,0.079
2023-04-11T11:05:25.296Z,0.078
2023-04-11T11:07:25.164Z,0.078
2023-04-11T11:09:25.251Z,0.081
2023-04-11T11:11:25.191Z,0.081
2023-04-11T11:13:25.258Z,0.077
2023-04-11T11:15:25.207Z,0.075
2023-04-11T11:17:25.241Z,0.074
2023-04-11T11:19:25.190Z,0.071
2023-04-11T11:23:25.293Z,0.068
2023-04-11T11:25:25.653Z,0.068
2023-04-11T11:27:28.160Z,0.069
2023-04-11T11:29:25.214Z,0.069
2023-04-11T11:31:27.416Z,0.070
2023-04-11T11:33:25.206Z,0.068
2023-04-11T11:35:25.257Z,0.071
2023-04-11T11:37:25.585Z,0.069
2023-04-11T11:39:25.363Z,0.067
2023-04-11T11:41:25.278Z,0.067
2023-04-11T11:43:25.298Z,0.068
2023-04-11T11:47:25.504Z,0.067
2023-04-11T11:49:25.322Z,0.066
2023-04-11T11:52:25.278Z,0.066
2023-04-11T11:54:25.309Z,0.065
2023-04-11T11:56:25.259Z,0.064
2023-04-11T11:58:25.611Z,0.062
2023-04-11T12:00:25.580Z,0.063
2023-04-11T12:02:25.835Z,0.063
2023-04-11T12:04:25.667Z,0.061
2023-04-11T12:06:25.444Z,0.062
2023-04-11T12:08:25.250Z,0.064
2023-04-11T12:10:25.425Z,0.063
2023-04-11T12:12:25.314Z,0.063
2023-04-11T12:14:25.398Z,0.065
2023-04-11T12:16:25.574Z,0.067
2023-04-11T12:18:25.380Z,0.068
2023-04-11T12:20:25.462Z,0.071
2023-04-11T12:22:25.267Z,0.070
2023-04-11T12:24:25.362Z,0.070
2023-04-11T12:26:27.838Z,0.069
2023-04-11T12:28:25.334Z,0.070
2023-04-11T12:30:25.487Z,0.071
2023-04-11T12:32:25.286Z,0.073
2023-04-11T12:34:25.306Z,0.071
2023-04-11T12:36:25.274Z,0.071
2023-04-11T12:38:25.318Z,0.071
2023-04-11T12:40:25.256Z,0.072
2023-04-11T12:42:27.113Z,0.072
2023-04-11T12:44:26.036Z,0.070
2023-04-11T12:46:25.275Z,0.069
2023-04-11T12:48:25.550Z,0.068
2023-04-11T12:50:25.426Z,0.068
2023-04-11T12:52:25.390Z,0.070
2023-04-11T12:54:25.339Z,0.073
2023-04-11T12:56:25.255Z,0.078
2023-04-11T12:58:30.126Z,0.077
2023-04-11T13:00:25.356Z,0.078
2023-04-11T13:02:25.569Z,0.079
2023-04-11T13:04:25.611Z,0.078
2023-04-11T13:06:25.354Z,0.076
2023-04-11T13:08:25.301Z,0.075
2023-04-11T13:10:30.987Z,0.073
2023-04-11T13:12:27.801Z,0.076
2023-04-11T13:14:25.349Z,0.078
2023-04-11T13:16:25.306Z,0.076
2023-04-11T13:18:25.403Z,0.077
2023-04-11T13:20:25.413Z,0.078
2023-04-11T13:22:25.402Z,0.078
2023-04-11T13:24:25.337Z,0.079
2023-04-11T13:26:25.392Z,0.077
2023-04-11T13:28:25.295Z,0.077
2023-04-11T13:30:25.428Z,0.076
2023-04-11T13:32:28.900Z,0.075
2023-04-11T13:34:25.388Z,0.077
2023-04-11T13:36:25.328Z,0.074
2023-04-11T13:38:25.481Z,0.075
2023-04-11T13:40:25.548Z,0.073
2023-04-11T13:42:25.361Z,0.073
2023-04-11T13:44:25.665Z,0.076
2023-04-11T13:46:26.906Z,0.078
2023-04-11T13:48:25.303Z,0.080
2023-04-11T13:50:25.462Z,0.080
2023-04-11T13:52:25.427Z,0.077
2023-04-11T13:54:25.342Z,0.074
2023-04-11T13:56:25.363Z,0.070
2023-04-11T13:58:25.408Z,0.071
2023-04-11T14:00:25.393Z,0.071
2023-04-11T14:02:25.473Z,0.072
2023-04-11T14:04:25.495Z,0.073
2023-04-11T14:06:25.360Z,0.074
2023-04-11T14:08:25.393Z,0.075
2023-04-11T14:10:25.517Z,0.078
2023-04-11T14:12:25.571Z,0.075
2023-04-11T14:14:25.456Z,0.073
2023-04-11T14:16:25.453Z,0.073
2023-04-11T14:18:25.417Z,0.073
2023-04-11T14:20:25.486Z,0.070
2023-04-11T14:22:25.546Z,0.069
2023-04-11T14:24:25.386Z,0.069
2023-04-11T14:26:25.458Z,0.070
2023-04-11T14:28:27.040Z,0.069
2023-04-11T14:30:25.465Z,0.070
2023-04-11T14:32:25.424Z,0.070
2023-04-11T14:34:25.361Z,0.068
2023-04-11T14:36:25.480Z,0.067
2023-04-11T14:38:25.437Z,0.068
2023-04-11T14:40:25.393Z,0.070
2023-04-11T14:42:25.440Z,0.071
2023-04-11T14:44:25.357Z,0.073
2023-04-11T14:46:25.490Z,0.073
2023-04-11T14:48:25.449Z,0.073
2023-04-11T14:50:26.983Z,0.074
2023-04-11T14:52:25.462Z,0.074
2023-04-11T14:54:25.386Z,0.073
2023-04-11T14:56:28.116Z,0.074
2023-04-11T14:58:25.488Z,0.075
2023-04-11T15:00:25.603Z,0.075
2023-04-11T15:02:25.634Z,0.077
2023-04-11T15:04:25.623Z,0.079
2023-04-11T15:06:28.317Z,0.079
2023-04-11T15:08:25.382Z,0.077
2023-04-11T15:10:25.504Z,0.077
2023-04-11T15:12:25.488Z,0.076
2023-04-11T15:14:25.632Z,0.076
2023-04-11T15:16:26.085Z,0.078
2023-04-11T15:18:30.327Z,0.077
2023-04-11T15:20:25.448Z,0.076
2023-04-11T15:22:25.596Z,0.076
2023-04-11T15:24:25.449Z,0.077
2023-04-11T15:26:25.498Z,0.077
2023-04-11T15:28:25.365Z,0.077
2023-04-11T15:30:25.420Z,0.076
2023-04-11T15:32:25.469Z,0.077
2023-04-11T15:34:25.491Z,0.075
2023-04-11T15:36:25.502Z,0.076
2023-04-11T15:38:25.458Z,0.076
2023-04-11T15:40:25.429Z,0.077
2023-04-11T15:42:25.589Z,0.077
2023-04-11T15:44:25.447Z,0.074
2023-04-11T15:47:25.507Z,0.072
2023-04-11T15:49:25.525Z,0.070
2023-04-11T15:51:25.502Z,0.071
2023-04-11T15:53:25.424Z,0.072
2023-04-11T15:55:28.015Z,0.073
2023-04-11T15:57:25.619Z,0.073
2023-04-11T15:59:25.552Z,0.072
2023-04-11T16:01:25.669Z,0.073
2023-04-11T16:03:25.409Z,0.067
2023-04-11T16:05:25.568Z,0.068
2023-04-11T16:07:25.774Z,0.066
2023-04-11T16:09:25.758Z,0.066
2023-04-11T16:11:26.031Z,0.067
2023-04-11T16:13:25.794Z,0.068
2023-04-11T16:15:25.608Z,0.068
2023-04-11T16:17:25.402Z,0.068
2023-04-11T16:19:28.384Z,0.071
2023-04-11T16:21:25.617Z,0.071
2023-04-11T16:23:25.546Z,0.073
2023-04-11T16:27:25.736Z,0.074
2023-04-11T16:28:49.516Z,0.075
2023-04-11T16:30:55.520Z,0.074
2023-04-11T16:32:49.689Z,0.074
2023-04-11T16:34:49.487Z,0.078
2023-04-11T16:36:49.563Z,0.077
2023-04-11T16:38:49.469Z,0.077
2023-04-11T16:40:49.529Z,0.075
2023-04-11T16:42:49.562Z,0.076
2023-04-11T16:44:49.536Z,0.078
2023-04-11T16:46:49.582Z,0.079
2023-04-11T16:48:49.629Z,0.078
2023-04-11T16:50:49.598Z,0.079
2023-04-11T16:52:50.149Z,0.078
2023-04-11T16:54:49.477Z,0.076
2023-04-11T16:56:49.683Z,0.079
2023-04-11T16:58:49.562Z,0.079
2023-04-11T17:00:49.557Z,0.077
2023-04-11T17:02:50.735Z,0.078
2023-04-11T17:04:49.494Z,0.077
2023-04-11T17:06:49.558Z,0.078
2023-04-11T17:08:49.885Z,0.078
2023-04-11T17:10:49.673Z,0.075
2023-04-11T17:12:49.525Z,0.074
2023-04-11T17:14:50.704Z,0.072
2023-04-11T17:17:49.623Z,0.075
2023-04-11T17:19:49.635Z,0.073
2023-04-11T17:21:49.582Z,0.072
2023-04-11T17:22:54.193Z,0.069
2023-04-11T17:25:49.520Z,0.069
2023-04-11T17:27:49.631Z,0.069
2023-04-11T17:29:54.456Z,0.067
2023-04-11T17:31:49.928Z,0.067
2023-04-11T17:33:49.483Z,0.063
2023-04-11T17:35:49.529Z,0.064
2023-04-11T17:37:49.660Z,0.063
2023-04-11T17:39:49.641Z,0.063
2023-04-11T17:41:49.552Z,0.066
2023-04-11T17:43:49.579Z,0.062
2023-04-11T17:45:50.091Z,0.061
2023-04-11T17:47:49.704Z,0.062
2023-04-11T17:49:49.581Z,0.061
2023-04-11T17:51:59.064Z,0.060
2023-04-11T17:53:49.541Z,0.061
2023-04-11T17:55:49.607Z,0.062
2023-04-11T17:57:49.615Z,0.058
2023-04-11T17:59:49.682Z,0.056
2023-04-11T18:01:49.664Z,0.056
2023-04-11T18:03:49.870Z,0.055
2023-04-11T18:05:52.186Z,0.057
2023-04-11T18:07:49.945Z,0.055
2023-04-11T18:09:49.646Z,0.057
2023-04-11T18:11:49.521Z,0.053
2023-04-11T18:13:50.493Z,0.053
2023-04-11T18:15:49.553Z,0.060
2023-04-11T18:17:49.794Z,0.054
2023-04-11T18:19:49.537Z,0.070
2023-04-11T18:21:49.596Z,0.062
2023-04-11T18:23:49.567Z,0.060
2023-04-11T18:25:49.580Z,0.065
2023-04-11T18:27:49.564Z,0.072
2023-04-11T18:29:49.692Z,0.073
2023-04-11T18:31:54.610Z,0.075
2023-04-11T18:33:49.555Z,0.075
2023-04-11T18:35:49.752Z,0.072
2023-04-11T18:37:49.819Z,0.073
2023-04-11T18:39:50.123Z,0.071
2023-04-11T18:41:54.427Z,0.071
2023-04-11T18:43:49.536Z,0.070
2023-04-11T18:45:49.552Z,0.069
2023-04-11T18:47:49.700Z,0.069
2023-04-11T18:49:49.737Z,0.069
2023-04-11T18:51:55.438Z,0.067
2023-04-11T18:53:49.696Z,0.068
2023-04-11T18:55:49.642Z,0.069
2023-04-11T18:57:52.455Z,0.072
2023-04-11T18:59:56.162Z,0.071
2023-04-11T19:01:49.780Z,0.072
2023-04-11T19:03:50.237Z,0.072
2023-04-11T19:05:50.560Z,0.074
2023-04-11T19:07:49.609Z,0.073
2023-04-11T19:09:49.710Z,0.074
2023-04-11T19:11:49.688Z,0.073
2023-04-11T19:13:49.582Z,0.074
2023-04-11T19:15:49.681Z,0.074
2023-04-11T19:17:49.755Z,0.076
2023-04-11T19:19:49.618Z,0.073
2023-04-11T19:21:49.877Z,0.074
2023-04-11T19:23:52.165Z,0.074
2023-04-11T19:25:49.553Z,0.072
2023-04-11T19:27:49.653Z,0.069
2023-04-11T19:29:49.642Z,0.069
2023-04-11T19:31:49.568Z,0.067
2023-04-11T19:33:49.529Z,0.069
2023-04-11T19:35:49.771Z,0.071
2023-04-11T19:37:49.578Z,0.070
2023-04-11T19:39:49.553Z,0.071
2023-04-11T19:41:49.836Z,0.071
2023-04-11T19:43:50.377Z,0.071
2023-04-11T19:45:54.588Z,0.073
2023-04-11T19:47:49.680Z,0.072
2023-04-11T19:49:49.573Z,0.072
2023-04-11T19:51:49.785Z,0.071
2023-04-11T19:53:49.656Z,0.073
2023-04-11T19:55:49.645Z,0.072
2023-04-11T19:57:49.729Z,0.071
2023-04-11T19:59:52.714Z,0.071
2023-04-11T20:01:49.799Z,0.069
2023-04-11T20:03:49.880Z,0.069
2023-04-11T20:05:49.654Z,0.066
2023-04-11T20:07:49.928Z,0.066
2023-04-11T20:09:49.777Z,0.066
2023-04-11T20:11:49.829Z,0.067
2023-04-11T20:13:49.617Z,0.067
2023-04-11T20:15:49.613Z,0.065
2023-04-11T20:17:49.815Z,0.065
2023-04-11T20:19:49.781Z,0.066
2023-04-11T20:21:49.804Z,0.066
2023-04-11T20:23:49.687Z,0.067
2023-04-11T20:25:49.721Z,0.069
2023-04-11T20:27:49.638Z,0.071
2023-04-11T20:29:49.776Z,0.069
2023-04-11T20:31:49.672Z,0.069
2023-04-11T20:33:49.610Z,0.066
2023-04-11T20:35:49.672Z,0.066
2023-04-11T20:37:49.645Z,0.068
2023-04-11T20:39:54.821Z,0.067
2023-04-11T20:41:49.722Z,0.067
2023-04-11T20:43:49.645Z,0.067
2023-04-11T20:45:49.688Z,0.066
2023-04-11T20:47:50.286Z,0.069
2023-04-11T20:49:49.625Z,0.069
2023-04-11T20:51:49.718Z,0.070
2023-04-11T20:53:49.599Z,0.072
2023-04-11T20:55:49.674Z,0.073
2023-04-11T20:58:49.940Z,0.073
2023-04-11T21:00:49.887Z,0.074
2023-04-11T21:02:50.114Z,0.073
2023-04-11T21:04:49.865Z,0.073
2023-04-11T21:05:52.759Z,0.074
2023-04-11T21:08:50.053Z,0.073
2023-04-11T21:10:49.761Z,0.074
2023-04-11T21:12:49.684Z,0.074
2023-04-11T21:14:49.692Z,0.075
2023-04-11T21:16:51.389Z,0.073
2023-04-11T21:18:49.868Z,0.073
2023-04-11T21:20:49.717Z,0.073
2023-04-11T21:22:49.820Z,0.075
2023-04-11T21:24:49.660Z,0.076
2023-04-11T21:26:49.631Z,0.075
2023-04-11T21:28:49.688Z,0.074
2023-04-11T21:30:49.704Z,0.076
2023-04-11T21:32:49.930Z,0.075
2023-04-11T21:34:49.705Z,0.075
2023-04-11T21:36:49.646Z,0.073
2023-04-11T21:38:50.009Z,0.077
2023-04-11T21:40:49.825Z,0.078
2023-04-11T21:42:49.648Z,0.078
2023-04-11T21:44:49.777Z,0.079
2023-04-11T21:46:49.826Z,0.080
2023-04-11T21:48:51.408Z,0.081
2023-04-11T21:50:49.691Z,0.082
2023-04-11T21:52:50.342Z,0.080
2023-04-11T21:54:52.393Z,0.078
2023-04-11T21:56:49.662Z,0.077
2023-04-11T21:58:49.763Z,0.076
2023-04-11T22:00:49.684Z,0.077
2023-04-11T22:02:50.065Z,0.077
2023-04-11T22:05:04.941Z,0.077
2023-04-11T22:06:49.645Z,0.076
2023-04-11T22:08:51.485Z,0.077
2023-04-11T22:10:49.706Z,0.078
2023-04-11T22:12:49.791Z,0.079
2023-04-11T22:14:50.392Z,0.078
2023-04-11T22:16:49.662Z,0.078
2023-04-11T22:18:49.713Z,0.078
2023-04-11T22:20:49.832Z,0.076
2023-04-11T22:22:49.889Z,0.076
2023-04-11T22:24:49.808Z,0.076
2023-04-11T22:26:51.166Z,0.077
2023-04-11T22:28:49.669Z,0.077
2023-04-11T22:30:49.670Z,0.076
2023-04-11T22:32:49.893Z,0.076
2023-04-11T22:34:49.682Z,0.078
2023-04-11T22:36:49.689Z,0.077
2023-04-11T22:38:57.423Z,0.076
2023-04-11T22:40:49.696Z,0.076
2023-04-11T22:42:49.854Z,0.074
2023-04-11T22:47:10.985Z,0.069
2023-04-11T22:49:11.174Z,0.069
2023-04-11T22:51:11.256Z,0.069
2023-04-11T22:53:10.993Z,0.068
2023-04-11T22:55:10.981Z,0.068
2023-04-11T22:57:13.165Z,0.069
2023-04-11T22:59:10.994Z,0.068
2023-04-11T23:01:11.349Z,0.069
2023-04-11T23:03:11.022Z,0.068
2023-04-11T23:05:11.023Z,0.070
2023-04-11T23:07:11.000Z,0.072
2023-04-11T23:09:11.063Z,0.070
2023-04-11T23:11:11.002Z,0.070
2023-04-11T23:13:11.190Z,0.068
2023-04-11T23:15:11.032Z,0.070
2023-04-11T23:17:10.979Z,0.070
2023-04-11T23:19:12.378Z,0.071
2023-04-11T23:21:13.745Z,0.073
2023-04-11T23:23:10.945Z,0.071
2023-04-11T23:25:11.000Z,0.068
2023-04-11T23:27:10.990Z,0.067
2023-04-11T23:29:10.938Z,0.069
2023-04-11T23:31:11.120Z,0.071
2023-04-11T23:33:11.039Z,0.073
2023-04-11T23:35:13.875Z,0.074
2023-04-11T23:37:11.018Z,0.075
2023-04-11T23:39:15.865Z,0.073
2023-04-11T23:41:10.973Z,0.072
2023-04-11T23:43:14.268Z,0.073
2023-04-11T23:45:11.135Z,0.072
2023-04-11T23:47:11.075Z,0.073
2023-04-11T23:49:11.287Z,0.072
2023-04-11T23:51:10.985Z,0.072
2023-04-11T23:53:14.054Z,0.075
2023-04-11T23:55:10.985Z,0.076
2023-04-11T23:57:11.047Z,0.074
2023-04-11T23:59:11.052Z,0.076
